Flight Track Log - Related Links

Times and Time Zones

All times are in EDT time to prevent confusion due to time zone crossing. See the EJA396 flight status page for this flight to view local times or setup timezone preferences in your user account.

Time Position Orientation Groundspeed Altitude Reporting Facility
EDT Latitude Longitude Course Direction KTS MPH feet Rate Location/Type
Sat 19:47:23 28.2172 -99.9469 71° East 175 201 7,100  Level Houston Center
Sat 19:48:25 28.2328 -99.8958 71° East 172 198 11,500 3,659 Climbing Houston Center
Sat 19:49:26 28.2497 -99.8356 72° East 189 217 14,600 3,317 Climbing Houston Center
Sat 19:50:28 28.2731 -99.7564 71° East 242 278 18,300 3,463 Climbing Houston Center
Sat 19:51:29 28.3017 -99.6597 71° East 264 304 21,700 2,878 Climbing Houston Center
Sat 19:52:31 28.3297 -99.5647 71° East 297 342 24,200 1,610 Climbing Houston Center
Sat 19:53:32 28.3611 -99.4558 72° East 336 387 25,000 393 Climbing Houston Center
Sat 19:54:33 28.3981 -99.3278 72° East 396 456 25,000 293 Level Houston Center
Sat 19:55:35 28.4378 -99.1947 71° East 431 496 25,600 927 Climbing Houston Center
Sat 19:56:36 28.4742 -99.0636 72° East 436 502 26,900 1,024 Climbing Houston Center
Sat 19:57:38 28.5119 -98.9331 72° East 436 502 27,700 927 Climbing Houston Center
Sat 19:58:39 28.5500 -98.7986 72° East 445 512 28,800 634 Climbing Houston Center
Sat 19:59:41 28.5894 -98.6636 72° East 448 516 29,000 98 Climbing Houston Center
Sat 20:00:42 28.6278 -98.5231 73° East 461 531 29,000  Level Houston Center
Sat 20:01:43 28.6686 -98.3814 72° East 452 520 29,000  Level Houston Center
Sat 20:02:45 28.7069 -98.2439 72° East 455 524 29,000  Level Houston Center
Sat 20:03:46 28.7531 -98.0819 72° East 451 519 29,000  Level Houston Center
Sat 20:04:48 28.7900 -97.9450 73° East 453 521 29,000  Level Houston Center
Sat 20:05:49 28.8281 -97.8083 72° East 453 521 29,000  Level Houston Center
Sat 20:06:51 28.8653 -97.6728 73° East 451 519 29,000  Level Houston Center
Sat 20:07:52 28.9033 -97.5358 72° East 454 522 29,000  Level Houston Center
Sat 20:08:53 28.9406 -97.4003 73° East 451 519 29,000  Level Houston Center
Sat 20:09:55 28.9772 -97.2628 73° East 454 522 29,000  Level Houston Center
Sat 20:10:56 29.0142 -97.1275 73° East 451 519 29,000  Level Houston Center
Sat 20:11:58 29.0575 -96.9639 73° East 452 520 29,000 -732 Level Houston Center
Sat 20:12:59 29.0928 -96.8306 73° East 447 514 27,500 -2,361 Descending Houston Center
Sat 20:14:00 29.1289 -96.6992 73° East 440 506 24,200 -3,122 Descending Houston Center
Sat 20:15:02 29.1606 -96.5764 74° East 410 472 21,100 -2,927 Descending Houston Center
Sat 20:16:03 29.1925 -96.4594 73° East 390 449 18,200 -3,165 Descending Houston Center
Sat 20:16:33 29.2122 -96.3906 72° East 373 429 16,300 -2,951 Descending Houston Center
Sat 20:17:04 29.2233 -96.3444 75° East 383 441 15,200 -2,000 Descending Houston Center
Sat 20:18:06 29.2694 -96.2186 67° East 348 400 13,200 -1,902 Descending Houston Center
Sat 20:19:07 29.3239 -96.1325 54° Northeast 336 387 11,300 -1,918 Descending Houston Center
Sat 20:20:08 29.3761 -96.0500 54° Northeast 323 372 9,300 -1,951 Descending Houston Center
Sat 20:21:10 29.4267 -95.9894 46° Northeast 277 319 7,300 -1,951 Descending Houston Center
Sat 20:22:11 29.4789 -95.9333 43° Northeast 259 298 5,300 -1,951 Descending Houston Center
Sat 20:23:13 29.5350 -95.8742 43° Northeast 268 308 3,300 -1,610 Descending Houston Center
Sat 20:24:14 29.5903 -95.8144 43° Northeast 272 313 2,000 -590 Descending Houston Center
Sat 20:25:15 29.6456 -95.7553 43° Northeast 234 269 2,100 -98 Climbing Houston Center
Sat 20:26:17 29.6869 -95.7083 45° Northeast 217 250 1,800 -439 Descending Houston Center
Sat 20:27:18 29.6819 -95.6669 98° East 164 189 1,200 -639 Descending Houston Center
Sat 20:28:19 29.6483 -95.6592 169° South 138 159 500 -689 Descending Houston Center
Sat 20:30:00 29.6167 -95.6500 235° Southwest  Level FlightAware

Login

Don't have an account? Register now (free) for customized features, flight alerts, and more!